Time;durP1;ratioP1;P1;durP2;ratioP2;P2;SDS_P1;SDS_P2;PMS_P1;PMS_P2;Temp;Humidity;BMP_temperature;BMP_pressure;BME280_temperature;BME280_humidity;BME280_pressure;Samples;Min_cycle;Max_cycle;Signal;HPM_P1;HPM_P2
2023/08/07 00:00:43;;;;;;;1.60;1.20;;;;;;;;;;5074135;28;20497;-79
2023/08/07 00:03:11;;;;;;;1.70;1.25;;;;;;;;;;5076257;28;20860;-79
2023/08/07 00:05:37;;;;;;;2.70;1.17;;;;;;;;;;5059022;28;20395;-79
2023/08/07 00:08:03;;;;;;;2.47;1.42;;;;;;;;;;5077526;28;20411;-78
2023/08/07 00:10:29;;;;;;;1.80;1.30;;;;;;;;;;5077195;28;20375;-78
2023/08/07 00:12:55;;;;;;;1.90;1.25;;;;;;;;;;5077709;28;20857;-78
2023/08/07 00:15:22;;;;;;;1.48;1.20;;;;;;;;;;5077410;28;20388;-79
2023/08/07 00:17:47;;;;;;;1.48;1.33;;;;;;;;;;5077464;28;20380;-78
2023/08/07 00:20:13;;;;;;;1.90;1.38;;;;;;;;;;5077265;28;20392;-79
2023/08/07 00:22:39;;;;;;;3.58;1.40;;;;;;;;;;5077596;28;20388;-79
2023/08/07 00:25:06;;;;;;;1.50;1.20;;;;;;;;;;5077538;28;20407;-79
2023/08/07 00:27:32;;;;;;;2.08;1.20;;;;;;;;;;5077089;28;20919;-78
2023/08/07 00:29:58;;;;;;;2.80;1.25;;;;;;;;;;5076971;28;20396;-79
2023/08/07 00:32:24;;;;;;;2.08;1.30;;;;;;;;;;5077810;28;20419;-78
2023/08/07 00:34:50;;;;;;;2.20;1.30;;;;;;;;;;5077062;28;20706;-79
2023/08/07 00:37:16;;;;;;;2.13;1.20;;;;;;;;;;5077591;28;20440;-79
2023/08/07 00:39:42;;;;;;;2.23;1.00;;;;;;;;;;5077821;28;20375;-79
2023/08/07 00:42:08;;;;;;;1.65;1.10;;;;;;;;;;5077429;28;20776;-79
2023/08/07 00:44:35;;;;;;;1.88;1.20;;;;;;;;;;5077052;28;20729;-79
2023/08/07 00:47:01;;;;;;;1.45;1.10;;;;;;;;;;5077130;28;20410;-79
2023/08/07 00:49:27;;;;;;;1.60;1.30;;;;;;;;;;5076918;28;20862;-79
2023/08/07 00:51:53;;;;;;;1.42;1.30;;;;;;;;;;5076724;28;20433;-78
2023/08/07 00:54:20;;;;;;;2.30;1.30;;;;;;;;;;5077169;28;20391;-79
2023/08/07 00:56:46;;;;;;;2.00;1.30;;;;;;;;;;5076478;28;20394;-79
2023/08/07 00:59:13;;;;;;;1.38;1.13;;;;;;;;;;5077187;28;20857;-78
2023/08/07 01:01:39;;;;;;;2.80;1.40;;;;;;;;;;5076739;28;20435;-79
2023/08/07 01:04:05;;;;;;;1.40;1.27;;;;;;;;;;5070518;28;20409;-79
2023/08/07 01:06:31;;;;;;;2.00;1.50;;;;;;;;;;5069485;28;20394;-78
2023/08/07 01:08:57;;;;;;;2.25;1.20;;;;;;;;;;5076184;28;20443;-79
2023/08/07 01:11:36;;;;;;;1.73;1.40;;;;;;;;;;5076862;28;20382;-79
2023/08/07 01:14:17;;;;;;;1.90;1.30;;;;;;;;;;5075620;28;20388;-78
2023/08/07 01:16:46;;;;;;;2.00;1.42;;;;;;;;;;5071769;28;20380;-79
2023/08/07 01:19:38;;;;;;;3.10;1.60;;;;;;;;;;5077367;28;20388;-79
2023/08/07 01:22:24;;;;;;;1.93;1.43;;;;;;;;;;5072967;28;20467;-79
2023/08/07 01:24:51;;;;;;;3.08;1.50;;;;;;;;;;5075977;28;20392;-79
2023/08/07 01:27:17;;;;;;;1.30;1.20;;;;;;;;;;5075890;28;20873;-78
2023/08/07 01:29:53;;;;;;;2.60;1.50;;;;;;;;;;5076147;28;20414;-79
2023/08/07 01:32:23;;;;;;;2.03;1.30;;;;;;;;;;5076353;28;20367;-79
2023/08/07 01:34:51;;;;;;;2.58;1.48;;;;;;;;;;5076167;28;20398;-79
2023/08/07 01:37:18;;;;;;;3.38;1.50;;;;;;;;;;5077077;28;20380;-79
2023/08/07 01:39:44;;;;;;;2.28;1.52;;;;;;;;;;5076475;28;20392;-79
2023/08/07 01:42:10;;;;;;;2.55;1.35;;;;;;;;;;5076169;28;20825;-79
2023/08/07 01:44:37;;;;;;;1.65;1.27;;;;;;;;;;5076154;28;20372;-79
2023/08/07 01:47:03;;;;;;;2.28;1.40;;;;;;;;;;5076421;28;20380;-79
2023/08/07 01:49:29;;;;;;;2.03;1.52;;;;;;;;;;5076504;28;20383;-79
2023/08/07 01:51:55;;;;;;;2.25;1.30;;;;;;;;;;5070610;28;20405;-79
2023/08/07 01:54:21;;;;;;;2.08;1.55;;;;;;;;;;5067550;28;20399;-79
2023/08/07 01:56:47;;;;;;;2.38;1.48;;;;;;;;;;5076388;28;20375;-77
2023/08/07 01:59:13;;;;;;;3.10;1.73;;;;;;;;;;5076065;28;20546;-79
2023/08/07 02:01:39;;;;;;;2.20;1.55;;;;;;;;;;5076000;28;20884;-79
2023/08/07 02:04:05;;;;;;;1.90;1.50;;;;;;;;;;5070625;28;20483;-79
2023/08/07 02:06:31;;;;;;;2.00;1.65;;;;;;;;;;5069825;28;20408;-78
2023/08/07 02:08:58;;;;;;;1.77;1.63;;;;;;;;;;5076271;28;20451;-79
2023/08/07 02:11:24;;;;;;;3.50;1.58;;;;;;;;;;5076454;28;20380;-78
2023/08/07 02:13:50;;;;;;;1.33;1.20;;;;;;;;;;5075847;28;20513;-79
2023/08/07 02:16:16;;;;;;;2.33;1.35;;;;;;;;;;5075853;28;20383;-79
2023/08/07 02:18:42;;;;;;;1.85;1.30;;;;;;;;;;5075561;28;20384;-79
2023/08/07 02:21:08;;;;;;;1.90;1.20;;;;;;;;;;5076138;28;20372;-79
2023/08/07 02:23:34;;;;;;;2.20;1.60;;;;;;;;;;5072703;28;20414;-79
2023/08/07 02:26:00;;;;;;;2.03;1.50;;;;;;;;;;5075101;28;20458;-79
2023/08/07 02:28:27;;;;;;;2.05;1.50;;;;;;;;;;5073368;28;20499;-79
2023/08/07 02:30:54;;;;;;;2.20;1.50;;;;;;;;;;5073269;28;20423;-79
2023/08/07 02:33:20;;;;;;;2.00;1.50;;;;;;;;;;5075455;28;20376;-79
2023/08/07 02:35:46;;;;;;;1.80;1.30;;;;;;;;;;5056752;28;20375;-78
2023/08/07 02:38:12;;;;;;;1.70;1.40;;;;;;;;;;5075308;28;20376;-79
2023/08/07 02:40:38;;;;;;;5.80;1.40;;;;;;;;;;5056785;28;20399;-80
2023/08/07 02:43:04;;;;;;;1.60;1.50;;;;;;;;;;5075328;28;20837;-79
2023/08/07 02:45:30;;;;;;;3.45;1.92;;;;;;;;;;5057374;28;20384;-79
2023/08/07 02:47:56;;;;;;;2.35;1.60;;;;;;;;;;5075392;28;20439;-78
2023/08/07 02:50:22;;;;;;;1.95;1.70;;;;;;;;;;5074758;28;20399;-79
2023/08/07 02:52:48;;;;;;;2.53;1.55;;;;;;;;;;5056660;28;20465;-79
2023/08/07 02:55:14;;;;;;;3.92;1.67;;;;;;;;;;5037841;28;20536;-79
2023/08/07 02:57:40;;;;;;;2.28;1.70;;;;;;;;;;5066124;28;20384;-79
2023/08/07 03:00:06;;;;;;;2.90;1.55;;;;;;;;;;5074912;28;20380;-79
2023/08/07 03:02:32;;;;;;;1.60;1.42;;;;;;;;;;5075304;28;20718;-79
2023/08/07 03:04:58;;;;;;;2.78;1.90;;;;;;;;;;5063153;28;20389;-79
2023/08/07 03:07:24;;;;;;;3.03;1.63;;;;;;;;;;5074778;28;20411;-79
2023/08/07 03:09:50;;;;;;;2.17;1.60;;;;;;;;;;5054633;28;20400;-79
2023/08/07 03:12:16;;;;;;;1.65;1.50;;;;;;;;;;5074627;28;20759;-79
2023/08/07 03:14:42;;;;;;;3.00;1.55;;;;;;;;;;5074760;28;20384;-78
2023/08/07 03:17:08;;;;;;;2.43;1.77;;;;;;;;;;5074689;28;20927;-79
2023/08/07 03:19:34;;;;;;;1.95;1.73;;;;;;;;;;5074213;28;20514;-79
2023/08/07 03:22:00;;;;;;;3.63;1.77;;;;;;;;;;5074099;28;20947;-79
2023/08/07 03:24:26;;;;;;;2.20;1.70;;;;;;;;;;5056673;28;20388;-79
2023/08/07 03:26:52;;;;;;;5.60;1.90;;;;;;;;;;5056980;28;20403;-79
2023/08/07 03:29:18;;;;;;;1.98;1.75;;;;;;;;;;5074647;28;20419;-79
2023/08/07 03:31:44;;;;;;;2.25;1.60;;;;;;;;;;5056569;28;20478;-78
2023/08/07 03:34:10;;;;;;;2.58;1.48;;;;;;;;;;5042417;28;20410;-79
2023/08/07 03:36:36;;;;;;;1.90;1.50;;;;;;;;;;5052782;28;20835;-79
2023/08/07 03:39:02;;;;;;;2.40;1.60;;;;;;;;;;5069855;28;20384;-79
2023/08/07 03:41:28;;;;;;;2.88;1.58;;;;;;;;;;5075226;28;20811;-78
2023/08/07 03:43:54;;;;;;;2.35;1.55;;;;;;;;;;5074549;28;20375;-79
2023/08/07 03:46:20;;;;;;;4.13;1.75;;;;;;;;;;5074181;28;20502;-78
2023/08/07 03:48:46;;;;;;;2.23;1.63;;;;;;;;;;5074228;28;20565;-79
2023/08/07 03:51:14;;;;;;;3.33;1.60;;;;;;;;;;5073915;28;20384;-79
2023/08/07 03:53:40;;;;;;;2.05;1.60;;;;;;;;;;5060094;28;20404;-78
2023/08/07 03:56:06;;;;;;;3.20;1.92;;;;;;;;;;5074549;28;20434;-78
2023/08/07 03:58:32;;;;;;;2.50;1.60;;;;;;;;;;5074278;28;20554;-78
2023/08/07 04:00:58;;;;;;;2.28;1.60;;;;;;;;;;5073010;28;20441;-78
2023/08/07 04:03:24;;;;;;;4.90;2.00;;;;;;;;;;5054814;28;20438;-78
2023/08/07 04:05:53;;;;;;;1.83;1.73;;;;;;;;;;5072856;28;20729;-78
2023/08/07 04:08:20;;;;;;;2.20;1.52;;;;;;;;;;5074075;28;20417;-79
2023/08/07 04:10:46;;;;;;;1.88;1.75;;;;;;;;;;5073744;28;20387;-79
2023/08/07 04:13:12;;;;;;;2.83;1.90;;;;;;;;;;5074040;28;20382;-79
2023/08/07 04:15:38;;;;;;;1.88;1.50;;;;;;;;;;5073622;28;20724;-79
2023/08/07 04:18:04;;;;;;;2.30;1.65;;;;;;;;;;5073694;28;20423;-79
2023/08/07 04:20:30;;;;;;;1.90;1.40;;;;;;;;;;5073773;28;20391;-78
2023/08/07 04:22:56;;;;;;;2.75;1.80;;;;;;;;;;5070612;28;20383;-77
2023/08/07 04:25:22;;;;;;;1.92;1.50;;;;;;;;;;5070983;28;20433;-77
2023/08/07 04:27:48;;;;;;;1.93;1.70;;;;;;;;;;5073106;28;20566;-79
2023/08/07 04:30:14;;;;;;;3.08;1.58;;;;;;;;;;5074512;28;20424;-79
2023/08/07 04:32:40;;;;;;;2.65;1.60;;;;;;;;;;5073970;28;20383;-79
2023/08/07 04:35:06;;;;;;;2.20;1.70;;;;;;;;;;5055793;28;20388;-79
2023/08/07 04:37:33;;;;;;;3.20;1.58;;;;;;;;;;5074297;28;20388;-80
2023/08/07 04:40:00;;;;;;;2.90;1.60;;;;;;;;;;5069970;28;20468;-78
2023/08/07 04:42:26;;;;;;;2.53;1.65;;;;;;;;;;5071421;28;20432;-78
2023/08/07 04:44:52;;;;;;;1.70;1.60;;;;;;;;;;5072431;28;20462;-78
2023/08/07 04:47:18;;;;;;;2.08;1.45;;;;;;;;;;5072837;28;20403;-78
2023/08/07 04:49:44;;;;;;;2.10;1.73;;;;;;;;;;5075990;28;20469;-78
2023/08/07 04:52:10;;;;;;;2.10;1.67;;;;;;;;;;5076730;28;20398;-78
2023/08/07 04:54:36;;;;;;;1.88;1.67;;;;;;;;;;5076656;28;20392;-78
2023/08/07 04:57:02;;;;;;;2.42;1.65;;;;;;;;;;5076346;28;20772;-78
2023/08/07 04:59:30;;;;;;;2.97;1.70;;;;;;;;;;5077315;28;20432;-78
2023/08/07 05:01:56;;;;;;;2.03;1.60;;;;;;;;;;5076109;28;20376;-78
2023/08/07 05:04:22;;;;;;;2.53;1.75;;;;;;;;;;5069218;28;20712;-78
2023/08/07 05:06:48;;;;;;;2.25;1.75;;;;;;;;;;5073803;28;20475;-78
2023/08/07 05:09:14;;;;;;;5.20;1.80;;;;;;;;;;5077471;28;21014;-78
2023/08/07 05:11:40;;;;;;;2.90;1.80;;;;;;;;;;5059292;28;20753;-78
2023/08/07 05:14:06;;;;;;;2.53;1.60;;;;;;;;;;5077653;28;20395;-78
2023/08/07 05:16:32;;;;;;;2.90;1.92;;;;;;;;;;5076612;28;20407;-78
2023/08/07 05:18:58;;;;;;;1.92;1.73;;;;;;;;;;5075594;28;20388;-78
2023/08/07 05:21:24;;;;;;;2.70;1.60;;;;;;;;;;5075811;28;20717;-78
2023/08/07 05:23:53;;;;;;;2.25;1.80;;;;;;;;;;5075489;28;20437;-78
2023/08/07 05:26:19;;;;;;;2.72;1.65;;;;;;;;;;5056421;28;20396;-78
2023/08/07 05:28:45;;;;;;;2.75;1.73;;;;;;;;;;5075903;28;20419;-78
2023/08/07 05:31:11;;;;;;;3.13;1.65;;;;;;;;;;5075885;28;20384;-78
2023/08/07 05:33:37;;;;;;;2.17;1.80;;;;;;;;;;5075396;28;20380;-78
2023/08/07 05:36:03;;;;;;;1.83;1.60;;;;;;;;;;5058114;28;20408;-77
2023/08/07 05:38:29;;;;;;;3.53;1.80;;;;;;;;;;5074674;28;20395;-78
2023/08/07 05:40:55;;;;;;;2.33;1.70;;;;;;;;;;5074053;28;20479;-78
2023/08/07 05:43:21;;;;;;;1.92;1.63;;;;;;;;;;5074828;28;20384;-78
2023/08/07 05:45:48;;;;;;;2.15;1.67;;;;;;;;;;5074357;28;20380;-78
2023/08/07 05:48:16;;;;;;;1.95;1.63;;;;;;;;;;5074571;28;20777;-78
2023/08/07 05:50:42;;;;;;;1.70;1.37;;;;;;;;;;5074153;28;20771;-78
2023/08/07 05:53:08;;;;;;;2.45;1.40;;;;;;;;;;5073947;28;20396;-78
2023/08/07 05:55:34;;;;;;;1.73;1.50;;;;;;;;;;5074585;28;20387;-78
2023/08/07 05:58:00;;;;;;;2.30;1.80;;;;;;;;;;5074959;28;20376;-77
2023/08/07 06:00:28;;;;;;;1.80;1.50;;;;;;;;;;5075704;28;20376;-79
2023/08/07 06:02:54;;;;;;;1.65;1.52;;;;;;;;;;5076824;28;20433;-79
2023/08/07 06:05:20;;;;;;;1.58;1.48;;;;;;;;;;5064725;28;20390;-79
2023/08/07 06:07:46;;;;;;;3.60;1.70;;;;;;;;;;5076670;28;20411;-78
2023/08/07 06:10:12;;;;;;;1.67;1.30;;;;;;;;;;5075402;28;20869;-79
2023/08/07 06:12:38;;;;;;;1.50;1.40;;;;;;;;;;5063399;28;20372;-79
2023/08/07 06:15:04;;;;;;;1.70;1.30;;;;;;;;;;5074109;28;20452;-79
2023/08/07 06:17:30;;;;;;;1.42;1.30;;;;;;;;;;5075857;28;20853;-79
2023/08/07 06:19:56;;;;;;;1.63;1.48;;;;;;;;;;5075050;28;20391;-79
2023/08/07 06:22:22;;;;;;;2.90;1.33;;;;;;;;;;5075297;28;20395;-79
2023/08/07 06:24:48;;;;;;;1.42;1.33;;;;;;;;;;5074772;28;20382;-79
2023/08/07 06:27:14;;;;;;;1.57;1.33;;;;;;;;;;5074782;28;20841;-79
2023/08/07 06:29:40;;;;;;;1.80;1.38;;;;;;;;;;5064855;28;20392;-78
2023/08/07 06:32:07;;;;;;;2.17;1.63;;;;;;;;;;5073587;28;20411;-79
2023/08/07 06:34:33;;;;;;;2.00;1.42;;;;;;;;;;5071023;28;20393;-78
2023/08/07 06:36:59;;;;;;;2.63;1.60;;;;;;;;;;5071671;28;20396;-77
2023/08/07 06:39:25;;;;;;;1.83;1.45;;;;;;;;;;5063120;28;20379;-78
2023/08/07 06:41:51;;;;;;;1.83;1.30;;;;;;;;;;5062404;28;20486;-80
2023/08/07 06:44:17;;;;;;;3.10;1.30;;;;;;;;;;5059429;28;20749;-80
2023/08/07 06:46:43;;;;;;;3.58;1.30;;;;;;;;;;5066607;28;20380;-79
2023/08/07 06:49:09;;;;;;;1.83;1.17;;;;;;;;;;5074575;28;20446;-79
2023/08/07 06:51:35;;;;;;;1.50;1.30;;;;;;;;;;5074070;28;20841;-79
2023/08/07 06:54:01;;;;;;;1.40;1.30;;;;;;;;;;5073862;28;20384;-79
2023/08/07 06:56:27;;;;;;;1.90;1.13;;;;;;;;;;5069211;28;20376;-79
2023/08/07 06:58:53;;;;;;;1.70;1.30;;;;;;;;;;5074373;28;20473;-79
2023/08/07 07:01:18;;;;;;;1.75;1.25;;;;;;;;;;5073994;28;20388;-79
2023/08/07 07:03:46;;;;;;;2.05;1.10;;;;;;;;;;5073556;28;20386;-79
2023/08/07 07:06:13;;;;;;;1.80;1.40;;;;;;;;;;5074136;28;20391;-79
2023/08/07 07:08:39;;;;;;;2.78;1.38;;;;;;;;;;5073843;28;20521;-79
2023/08/07 07:11:05;;;;;;;2.05;1.10;;;;;;;;;;5071824;28;20416;-79
2023/08/07 07:13:30;;;;;;;1.83;1.52;;;;;;;;;;5072561;28;20849;-79
2023/08/07 07:15:56;;;;;;;1.90;1.52;;;;;;;;;;5070636;28;20384;-79
2023/08/07 07:18:22;;;;;;;1.97;1.30;;;;;;;;;;5073737;28;20372;-78
2023/08/07 07:20:48;;;;;;;1.65;1.35;;;;;;;;;;5073698;28;20380;-78
2023/08/07 07:23:15;;;;;;;1.70;1.30;;;;;;;;;;5074455;28;20391;-79
2023/08/07 07:25:41;;;;;;;1.35;1.25;;;;;;;;;;5073739;28;20779;-79
2023/08/07 07:28:07;;;;;;;2.30;1.30;;;;;;;;;;5073814;28;20403;-79
2023/08/07 07:30:33;;;;;;;2.30;1.50;;;;;;;;;;5072805;28;20391;-78
2023/08/07 07:32:59;;;;;;;3.30;1.30;;;;;;;;;;5073792;28;20395;-79
2023/08/07 07:35:26;;;;;;;1.50;1.35;;;;;;;;;;5068673;28;20385;-80
2023/08/07 07:37:52;;;;;;;2.20;1.60;;;;;;;;;;5069245;28;20714;-79
2023/08/07 07:40:18;;;;;;;1.90;1.30;;;;;;;;;;5068352;28;21877;-80
2023/08/07 07:42:44;;;;;;;2.30;1.40;;;;;;;;;;5072564;28;20379;-80
2023/08/07 07:45:10;;;;;;;2.22;1.15;;;;;;;;;;5073148;28;20901;-80
2023/08/07 07:47:36;;;;;;;1.80;1.23;;;;;;;;;;5072026;28;20407;-79
2023/08/07 07:50:06;;;;;;;1.95;1.27;;;;;;;;;;5068296;28;20417;-78
2023/08/07 07:52:32;;;;;;;1.50;1.10;;;;;;;;;;5072197;28;20382;-78
2023/08/07 07:54:58;;;;;;;1.55;1.40;;;;;;;;;;5073181;28;20415;-80
2023/08/07 07:57:24;;;;;;;1.48;1.20;;;;;;;;;;5072984;28;20383;-80
2023/08/07 07:59:50;;;;;;;1.40;1.23;;;;;;;;;;5073670;28;20384;-80
2023/08/07 08:02:17;;;;;;;2.10;1.35;;;;;;;;;;5059992;28;20385;-80
2023/08/07 08:04:43;;;;;;;2.30;1.10;;;;;;;;;;5065247;28;20380;-80
2023/08/07 08:07:09;;;;;;;2.10;1.20;;;;;;;;;;5062956;28;20458;-80
2023/08/07 08:09:35;;;;;;;1.40;1.20;;;;;;;;;;5072500;28;20749;-79
2023/08/07 08:12:01;;;;;;;3.83;1.10;;;;;;;;;;5072605;28;20380;-79
2023/08/07 08:14:27;;;;;;;1.35;1.00;;;;;;;;;;5062036;28;20453;-80
2023/08/07 08:16:53;;;;;;;2.33;1.00;;;;;;;;;;5067359;28;20385;-79
2023/08/07 08:19:19;;;;;;;2.65;1.20;;;;;;;;;;5072946;28;20728;-79
2023/08/07 08:21:45;;;;;;;1.63;1.10;;;;;;;;;;5072739;28;20379;-80
2023/08/07 08:24:11;;;;;;;2.55;1.15;;;;;;;;;;5074558;28;20387;-79
2023/08/07 08:26:37;;;;;;;1.55;1.10;;;;;;;;;;5076099;28;20468;-79
2023/08/07 08:29:04;;;;;;;1.53;1.00;;;;;;;;;;5075970;28;20469;-78
2023/08/07 08:31:30;;;;;;;1.75;1.05;;;;;;;;;;5075555;28;20841;-79
2023/08/07 08:33:57;;;;;;;1.50;1.10;;;;;;;;;;5075954;28;20390;-79
2023/08/07 08:36:23;;;;;;;2.00;1.20;;;;;;;;;;5077258;28;20403;-79
2023/08/07 08:38:51;;;;;;;1.10;0.93;;;;;;;;;;5075926;28;20852;-79
2023/08/07 08:41:17;;;;;;;1.67;1.10;;;;;;;;;;5075428;28;20772;-78
2023/08/07 08:43:44;;;;;;;2.10;1.30;;;;;;;;;;5069785;28;20425;-80
2023/08/07 08:46:11;;;;;;;1.30;1.02;;;;;;;;;;5061445;28;20381;-79
2023/08/07 08:48:39;;;;;;;2.80;1.20;;;;;;;;;;5072918;28;20420;-79
2023/08/07 08:51:05;;;;;;;1.00;0.90;;;;;;;;;;5076069;28;20920;-80
2023/08/07 08:53:32;;;;;;;1.70;0.90;;;;;;;;;;5075169;28;20424;-79
2023/08/07 08:55:59;;;;;;;1.02;0.93;;;;;;;;;;5074116;28;20395;-80
2023/08/07 08:58:25;;;;;;;1.65;1.00;;;;;;;;;;5072670;28;20380;-80
2023/08/07 09:00:52;;;;;;;1.52;1.00;;;;;;;;;;5070850;28;20854;-81
2023/08/07 09:03:19;;;;;;;1.38;0.98;;;;;;;;;;5071545;28;20384;-80
2023/08/07 09:05:46;;;;;;;1.48;1.00;;;;;;;;;;5058589;28;20421;-78
2023/08/07 09:08:12;;;;;;;2.22;1.05;;;;;;;;;;5075942;28;20466;-79
2023/08/07 09:10:38;;;;;;;0.98;0.80;;;;;;;;;;5076016;28;20455;-78
2023/08/07 09:13:08;;;;;;;1.50;0.95;;;;;;;;;;5058486;28;20882;-80
2023/08/07 09:15:35;;;;;;;2.90;1.60;;;;;;;;;;5076809;28;20388;-81
2023/08/07 09:18:01;;;;;;;3.78;1.40;;;;;;;;;;5077032;28;20804;-81
2023/08/07 09:20:28;;;;;;;1.75;0.93;;;;;;;;;;5077417;28;20376;-80
2023/08/07 09:22:54;;;;;;;1.17;0.90;;;;;;;;;;5076648;28;20398;-79
2023/08/07 09:25:30;;;;;;;1.23;0.95;;;;;;;;;;5077696;28;20792;-80
2023/08/07 09:27:57;;;;;;;1.30;0.80;;;;;;;;;;5057949;28;20461;-79
2023/08/07 09:30:26;;;;;;;1.00;0.85;;;;;;;;;;5075308;28;20384;-77
2023/08/07 09:32:52;;;;;;;4.37;1.93;;;;;;;;;;5072085;28;20811;-78
2023/08/07 09:35:22;;;;;;;3.58;1.95;;;;;;;;;;5066314;28;20384;-78
2023/08/07 09:37:48;;;;;;;2.22;1.40;;;;;;;;;;5070487;28;20457;-78
2023/08/07 09:40:15;;;;;;;2.30;1.30;;;;;;;;;;5067717;28;20488;-78
2023/08/07 09:42:41;;;;;;;2.83;1.40;;;;;;;;;;5075405;28;20721;-78
2023/08/07 09:45:20;;;;;;;1.83;1.25;;;;;;;;;;5067949;28;20398;-78
2023/08/07 09:47:46;;;;;;;1.90;1.33;;;;;;;;;;5068602;28;20416;-79
2023/08/07 09:50:17;;;;;;;1.65;1.33;;;;;;;;;;5057002;28;20387;-78
2023/08/07 09:52:47;;;;;;;1.60;1.30;;;;;;;;;;5075192;28;20420;-78
2023/08/07 09:55:15;;;;;;;4.07;1.50;;;;;;;;;;5075739;28;20745;-78
2023/08/07 09:57:42;;;;;;;1.77;1.40;;;;;;;;;;5074838;28;20382;-78
2023/08/07 10:00:11;;;;;;;1.65;1.55;;;;;;;;;;5075714;28;20376;-77
2023/08/07 10:02:38;;;;;;;6.05;2.25;;;;;;;;;;5075541;28;20437;-79
2023/08/07 10:05:05;;;;;;;2.28;1.70;;;;;;;;;;5075431;28;20833;-79
2023/08/07 10:07:31;;;;;;;2.83;2.05;;;;;;;;;;5075554;28;20414;-78
2023/08/07 10:09:59;;;;;;;2.83;2.00;;;;;;;;;;5075626;28;20387;-78
2023/08/07 10:12:25;;;;;;;1.60;1.50;;;;;;;;;;5064612;28;20375;-79
2023/08/07 10:14:51;;;;;;;1.88;1.60;;;;;;;;;;5075416;28;20387;-79
2023/08/07 10:17:17;;;;;;;3.25;1.67;;;;;;;;;;5075572;28;20773;-78
2023/08/07 10:19:44;;;;;;;2.72;1.52;;;;;;;;;;5075170;28;20398;-79
2023/08/07 10:22:10;;;;;;;1.90;1.40;;;;;;;;;;5074119;28;20466;-78
2023/08/07 10:24:38;;;;;;;2.40;1.73;;;;;;;;;;5056646;28;20498;-79
2023/08/07 10:27:05;;;;;;;1.30;1.20;;;;;;;;;;5074204;28;20422;-80
2023/08/07 10:29:32;;;;;;;2.75;1.60;;;;;;;;;;5075760;28;20408;-80
2023/08/07 10:31:58;;;;;;;2.72;1.33;;;;;;;;;;5075409;28;20384;-79
2023/08/07 10:34:24;;;;;;;2.78;1.33;;;;;;;;;;5075157;28;20380;-80
2023/08/07 10:36:50;;;;;;;1.10;1.00;;;;;;;;;;5075629;28;20380;-80
2023/08/07 10:39:16;;;;;;;1.35;1.10;;;;;;;;;;5075103;28;20394;-78
2023/08/07 10:41:45;;;;;;;0.98;0.93;;;;;;;;;;5075276;28;20376;-79
2023/08/07 10:44:37;;;;;;;1.50;1.40;;;;;;;;;;5075267;28;20474;-79
2023/08/07 10:47:03;;;;;;;1.23;1.10;;;;;;;;;;5053514;28;20384;-79
2023/08/07 10:49:42;;;;;;;1.20;1.10;;;;;;;;;;5074648;28;20500;-79
2023/08/07 10:52:09;;;;;;;1.80;1.35;;;;;;;;;;5074647;28;20376;-79
2023/08/07 10:54:42;;;;;;;2.08;1.70;;;;;;;;;;5074193;28;20378;-79
2023/08/07 10:57:11;;;;;;;1.73;1.50;;;;;;;;;;5074218;28;20386;-79
2023/08/07 10:59:38;;;;;;;1.58;1.35;;;;;;;;;;5074327;28;20380;-79
2023/08/07 11:02:08;;;;;;;1.50;1.10;;;;;;;;;;5074277;28;20429;-79
2023/08/07 11:04:36;;;;;;;1.20;1.10;;;;;;;;;;5064651;28;20390;-79
2023/08/07 11:07:02;;;;;;;1.17;1.00;;;;;;;;;;5073029;28;20383;-79
2023/08/07 11:09:28;;;;;;;0.93;0.93;;;;;;;;;;5071195;28;20426;-80
2023/08/07 11:11:54;;;;;;;1.70;0.75;;;;;;;;;;5074019;28;20380;-80
2023/08/07 11:14:20;;;;;;;1.08;0.98;;;;;;;;;;5056779;28;20457;-80
2023/08/07 11:16:47;;;;;;;1.70;0.70;;;;;;;;;;5073953;28;20384;-80
2023/08/07 11:19:14;;;;;;;1.40;0.80;;;;;;;;;;5073520;28;20841;-79
2023/08/07 11:21:42;;;;;;;1.02;0.70;;;;;;;;;;5065525;28;20376;-79
2023/08/07 11:24:08;;;;;;;1.50;1.00;;;;;;;;;;5073335;28;20376;-79
2023/08/07 11:26:34;;;;;;;1.17;1.00;;;;;;;;;;5073558;28;20895;-79
2023/08/07 11:29:00;;;;;;;1.40;1.00;;;;;;;;;;5073718;28;20489;-79
2023/08/07 11:31:26;;;;;;;1.00;0.90;;;;;;;;;;5073474;28;20466;-79
2023/08/07 11:33:55;;;;;;;1.50;0.90;;;;;;;;;;5073442;28;20384;-79
2023/08/07 11:36:21;;;;;;;1.38;0.82;;;;;;;;;;5073917;28;20414;-79
2023/08/07 11:38:47;;;;;;;1.00;0.90;;;;;;;;;;5073518;28;20436;-79
2023/08/07 11:41:14;;;;;;;1.33;0.83;;;;;;;;;;5073447;28;20384;-79
2023/08/07 11:43:41;;;;;;;0.90;0.90;;;;;;;;;;5073897;28;20379;-79
2023/08/07 11:46:08;;;;;;;1.30;0.83;;;;;;;;;;5073324;28;20926;-79
2023/08/07 11:48:35;;;;;;;0.80;0.80;;;;;;;;;;5067692;28;20865;-80
2023/08/07 11:51:01;;;;;;;2.03;0.98;;;;;;;;;;5073567;28;20436;-80
2023/08/07 11:53:29;;;;;;;0.90;0.70;;;;;;;;;;5073971;28;20375;-79
2023/08/07 11:55:59;;;;;;;2.17;1.20;;;;;;;;;;5074216;28;20466;-79
2023/08/07 11:58:26;;;;;;;2.30;1.38;;;;;;;;;;5071867;28;20375;-79
2023/08/07 12:00:52;;;;;;;1.67;1.10;;;;;;;;;;5078085;28;20475;-79
2023/08/07 12:03:31;;;;;;;2.22;1.40;;;;;;;;;;5070678;28;20393;-79
2023/08/07 12:05:58;;;;;;;2.30;1.33;;;;;;;;;;5072370;28;20387;-78
2023/08/07 12:08:24;;;;;;;0.90;0.80;;;;;;;;;;5077166;28;20494;-79
2023/08/07 12:11:01;;;;;;;1.75;1.00;;;;;;;;;;5071775;28;20829;-78
2023/08/07 12:13:27;;;;;;;1.40;1.00;;;;;;;;;;5074325;28;20383;-78
2023/08/07 12:15:56;;;;;;;1.38;0.95;;;;;;;;;;5071114;28;20516;-79
2023/08/07 12:18:23;;;;;;;1.60;1.13;;;;;;;;;;5075506;28;20375;-79
2023/08/07 12:20:52;;;;;;;1.00;0.90;;;;;;;;;;5075948;28;20387;-80
2023/08/07 12:23:21;;;;;;;1.08;0.80;;;;;;;;;;5069456;28;20381;-78
2023/08/07 12:25:47;;;;;;;1.45;0.70;;;;;;;;;;5069765;28;20382;-79
2023/08/07 12:28:13;;;;;;;1.08;0.90;;;;;;;;;;5075726;28;20765;-78
2023/08/07 12:30:39;;;;;;;1.23;0.85;;;;;;;;;;5075793;28;20395;-78
2023/08/07 12:33:07;;;;;;;1.02;0.93;;;;;;;;;;5067557;28;20463;-79
2023/08/07 12:35:33;;;;;;;0.93;0.82;;;;;;;;;;5066124;28;20393;-82
2023/08/07 12:37:59;;;;;;;1.33;0.98;;;;;;;;;;5056728;28;20383;-77
2023/08/07 12:40:25;;;;;;;0.90;0.90;;;;;;;;;;5051204;28;20395;-79
2023/08/07 12:42:51;;;;;;;2.10;1.10;;;;;;;;;;5076029;28;20412;-79
2023/08/07 12:45:18;;;;;;;0.80;0.75;;;;;;;;;;5075744;28;20386;-78
2023/08/07 12:47:45;;;;;;;0.80;0.80;;;;;;;;;;5069843;28;20536;-78
2023/08/07 12:50:11;;;;;;;2.55;0.80;;;;;;;;;;5067998;28;20391;-77
2023/08/07 12:52:37;;;;;;;0.70;0.70;;;;;;;;;;5074002;28;20376;-79
2023/08/07 12:55:03;;;;;;;1.48;0.75;;;;;;;;;;5071464;28;20390;-79
2023/08/07 12:57:29;;;;;;;1.63;1.00;;;;;;;;;;5071320;28;20767;-79
2023/08/07 12:59:55;;;;;;;1.03;0.77;;;;;;;;;;5071502;28;20383;-80
2023/08/07 13:02:21;;;;;;;1.17;0.70;;;;;;;;;;5075746;28;20463;-80
2023/08/07 13:04:47;;;;;;;0.80;0.80;;;;;;;;;;5069375;28;20379;-80
2023/08/07 13:07:13;;;;;;;1.90;1.00;;;;;;;;;;5076539;28;20400;-79
2023/08/07 13:09:39;;;;;;;0.60;0.60;;;;;;;;;;5075039;28;20466;-78
2023/08/07 13:12:05;;;;;;;1.20;0.60;;;;;;;;;;5074360;28;20380;-79
2023/08/07 13:14:31;;;;;;;1.20;0.63;;;;;;;;;;5076108;28;20379;-78
2023/08/07 13:16:57;;;;;;;0.75;0.60;;;;;;;;;;5075920;28;20719;-80
2023/08/07 13:19:23;;;;;;;0.57;0.55;;;;;;;;;;5076618;28;20461;-79
2023/08/07 13:21:49;;;;;;;1.17;0.70;;;;;;;;;;5065441;28;20393;-79
2023/08/07 13:24:15;;;;;;;0.80;0.60;;;;;;;;;;5076102;28;20481;-79
2023/08/07 13:26:44;;;;;;;1.40;0.70;;;;;;;;;;5076506;28;20821;-79
2023/08/07 13:29:13;;;;;;;0.55;0.40;;;;;;;;;;5075784;28;20469;-80
2023/08/07 13:31:41;;;;;;;0.90;0.60;;;;;;;;;;5075835;28;20430;-80
2023/08/07 13:34:10;;;;;;;0.70;0.60;;;;;;;;;;5075948;28;20466;-78
2023/08/07 13:36:37;;;;;;;0.73;0.65;;;;;;;;;;5072906;28;20391;-79
2023/08/07 13:39:03;;;;;;;0.52;0.50;;;;;;;;;;5075270;28;20433;-78
2023/08/07 13:41:29;;;;;;;1.10;0.68;;;;;;;;;;5075382;28;20392;-79
2023/08/07 13:43:55;;;;;;;1.08;0.60;;;;;;;;;;5074799;28;20372;-77
2023/08/07 13:46:24;;;;;;;1.08;0.77;;;;;;;;;;5075592;28;20817;-79
2023/08/07 13:48:50;;;;;;;1.33;0.70;;;;;;;;;;5079602;28;20405;-79
2023/08/07 13:51:17;;;;;;;0.80;0.50;;;;;;;;;;5077681;28;20395;-79
2023/08/07 13:53:43;;;;;;;0.70;0.65;;;;;;;;;;5076102;28;20402;-79
2023/08/07 13:56:12;;;;;;;2.15;0.68;;;;;;;;;;5076796;28;20521;-81
2023/08/07 13:58:38;;;;;;;1.23;0.75;;;;;;;;;;5076786;28;20376;-81
2023/08/07 14:01:04;;;;;;;0.60;0.60;;;;;;;;;;5085175;28;20470;-79
2023/08/07 14:03:30;;;;;;;0.93;0.68;;;;;;;;;;5079868;28;20419;-81
2023/08/07 14:05:56;;;;;;;2.45;0.65;;;;;;;;;;5074383;28;20388;-80
2023/08/07 14:08:22;;;;;;;0.77;0.60;;;;;;;;;;5080776;28;20461;-79
2023/08/07 14:10:48;;;;;;;1.52;0.70;;;;;;;;;;5081034;28;20376;-81
2023/08/07 14:13:14;;;;;;;1.60;0.70;;;;;;;;;;5061421;28;20396;-80
2023/08/07 14:15:40;;;;;;;0.80;0.80;;;;;;;;;;5080730;28;20376;-80
2023/08/07 14:18:06;;;;;;;1.30;0.70;;;;;;;;;;5079197;28;20384;-79
2023/08/07 14:20:33;;;;;;;1.00;0.80;;;;;;;;;;5086597;28;20387;-79
2023/08/07 14:22:59;;;;;;;1.70;0.80;;;;;;;;;;5077627;28;20412;-80
2023/08/07 14:25:25;;;;;;;2.17;0.80;;;;;;;;;;5078329;28;20380;-80
2023/08/07 14:27:51;;;;;;;1.02;0.85;;;;;;;;;;5074029;28;20460;-80
2023/08/07 14:30:17;;;;;;;1.45;0.77;;;;;;;;;;5069468;28;20380;-79
2023/08/07 14:32:43;;;;;;;2.30;1.00;;;;;;;;;;5076573;28;20394;-80
2023/08/07 14:35:09;;;;;;;0.88;0.80;;;;;;;;;;5077640;28;20383;-80
2023/08/07 14:37:35;;;;;;;1.05;0.80;;;;;;;;;;5075848;28;20415;-81
2023/08/07 14:40:03;;;;;;;1.08;0.70;;;;;;;;;;5076437;28;20395;-79